Time;durP1;ratioP1;P1;durP2;ratioP2;P2;SDS_P1;SDS_P2;PMS_P1;PMS_P2;Temp;Humidity;BMP_temperature;BMP_pressure;BME280_temperature;BME280_humidity;BME280_pressure;Samples;Min_cycle;Max_cycle;Signal;HPM_P1;HPM_P2
2021/12/22 00:01:36;;;;;;;7.82;5.40;;;20.50;51.70;;;;;;5099100;28;20041;-68
2021/12/22 00:04:03;;;;;;;8.98;5.70;;;20.40;51.40;;;;;;5099438;28;20043;-68
2021/12/22 00:06:32;;;;;;;9.35;5.65;;;20.50;51.60;;;;;;5099354;28;20049;-68
2021/12/22 00:08:59;;;;;;;10.82;5.70;;;20.50;51.50;;;;;;5099091;28;20040;-68
2021/12/22 00:11:26;;;;;;;11.32;5.68;;;20.50;51.30;;;;;;5098764;28;20048;-68
2021/12/22 00:13:53;;;;;;;8.95;5.90;;;20.50;51.20;;;;;;5099105;28;20040;-68
2021/12/22 00:16:19;;;;;;;7.55;5.13;;;20.50;51.20;;;;;;5098999;28;20048;-68
2021/12/22 00:18:45;;;;;;;9.30;5.38;;;20.40;51.20;;;;;;5098927;28;20040;-68
2021/12/22 00:21:11;;;;;;;10.95;6.07;;;20.40;51.20;;;;;;5098847;28;20040;-68
2021/12/22 00:23:38;;;;;;;8.68;6.03;;;20.50;51.20;;;;;;5098730;28;20036;-68
2021/12/22 00:26:04;;;;;;;9.32;6.38;;;20.50;51.20;;;;;;5099089;28;20044;-68
2021/12/22 00:28:32;;;;;;;13.70;7.13;;;20.50;51.10;;;;;;5098439;28;20107;-67
2021/12/22 00:31:00;;;;;;;15.13;6.82;;;20.40;50.80;;;;;;5098412;28;20056;-67
2021/12/22 00:33:28;;;;;;;9.38;5.75;;;20.50;51.00;;;;;;5098766;28;20040;-68
2021/12/22 00:35:54;;;;;;;11.00;7.40;;;20.40;50.90;;;;;;5098783;28;20040;-68
2021/12/22 00:38:21;;;;;;;11.63;6.95;;;20.40;50.90;;;;;;5098817;28;20040;-68
2021/12/22 00:40:48;;;;;;;9.73;6.57;;;20.40;50.90;;;;;;5098542;28;20075;-68
2021/12/22 00:43:15;;;;;;;12.23;6.32;;;20.30;51.00;;;;;;5098670;28;20036;-68
2021/12/22 00:45:42;;;;;;;9.57;6.55;;;20.30;51.10;;;;;;5098337;28;20043;-68
2021/12/22 00:48:10;;;;;;;10.45;6.45;;;20.40;51.20;;;;;;5098900;28;20075;-68
2021/12/22 00:50:37;;;;;;;12.30;6.32;;;20.20;51.20;;;;;;5098393;28;20051;-68
2021/12/22 00:53:04;;;;;;;10.30;6.85;;;20.30;51.30;;;;;;5098717;28;20045;-68
2021/12/22 00:55:32;;;;;;;13.63;6.50;;;20.20;51.20;;;;;;5098499;28;20048;-68
2021/12/22 00:57:58;;;;;;;14.93;7.25;;;20.20;51.10;;;;;;5098362;28;20078;-68
2021/12/22 01:00:25;;;;;;;13.73;6.70;;;20.20;51.10;;;;;;5097528;28;20067;-68
2021/12/22 01:02:53;;;;;;;11.48;6.50;;;20.20;51.10;;;;;;5098385;28;20036;-68
2021/12/22 01:05:19;;;;;;;13.30;8.00;;;20.20;50.90;;;;;;5098102;28;20044;-68
2021/12/22 01:07:47;;;;;;;11.18;7.15;;;20.20;51.00;;;;;;5098147;28;20049;-68
2021/12/22 01:10:16;;;;;;;14.75;7.28;;;20.30;51.00;;;;;;5098076;28;20028;-68
2021/12/22 01:12:42;;;;;;;11.05;6.43;;;20.20;50.80;;;;;;5098141;28;20052;-68
2021/12/22 01:15:13;;;;;;;12.05;7.38;;;20.10;50.80;;;;;;5097693;28;20047;-68
2021/12/22 01:17:45;;;;;;;10.55;7.05;;;20.20;50.90;;;;;;5097668;28;20075;-68
2021/12/22 01:20:29;;;;;;;10.88;6.93;;;20.20;50.80;;;;;;5097916;28;20058;-68
2021/12/22 01:23:02;;;;;;;9.70;6.47;;;20.00;50.80;;;;;;5097899;28;20040;-68
2021/12/22 01:25:38;;;;;;;17.40;7.72;;;20.20;50.90;;;;;;5097746;28;20044;-68
2021/12/22 01:28:04;;;;;;;14.55;7.00;;;20.10;50.90;;;;;;5097859;28;20051;-69
2021/12/22 01:30:32;;;;;;;9.38;6.95;;;20.10;50.90;;;;;;5097437;28;20040;-68
2021/12/22 01:33:01;;;;;;;13.82;6.80;;;20.00;50.80;;;;;;5097603;28;20113;-68
2021/12/22 01:35:31;;;;;;;11.32;7.40;;;20.10;50.80;;;;;;5097586;28;20055;-68
2021/12/22 01:37:57;;;;;;;11.10;7.10;;;20.10;50.70;;;;;;5097682;28;20180;-68
2021/12/22 01:40:25;;;;;;;11.32;7.15;;;20.10;50.80;;;;;;5097164;28;20115;-68
2021/12/22 01:42:55;;;;;;;11.85;6.60;;;20.00;50.80;;;;;;5097003;28;20044;-68
2021/12/22 01:51:07;;;;;;;8.45;6.65;;;20.00;50.90;;;;;;5097306;28;20045;-68
2021/12/22 01:53:36;;;;;;;10.05;6.68;;;20.10;50.90;;;;;;5097208;28;20048;-68
2021/12/22 01:56:33;;;;;;;11.82;6.43;;;20.10;50.90;;;;;;5097381;28;20028;-68
2021/12/22 01:58:59;;;;;;;8.40;6.10;;;20.00;50.50;;;;;;5096792;28;20043;-68
2021/12/22 02:01:27;;;;;;;9.63;6.90;;;20.10;50.60;;;;;;5097046;28;20052;-68
2021/12/22 02:03:54;;;;;;;11.63;5.97;;;20.10;50.60;;;;;;5097144;28;20066;-68
2021/12/22 02:06:21;;;;;;;8.88;7.05;;;20.10;50.70;;;;;;5097199;28;20054;-68
2021/12/22 02:08:47;;;;;;;13.07;7.15;;;20.30;50.80;;;;;;5096761;28;20076;-68
2021/12/22 02:11:15;;;;;;;9.55;6.70;;;20.10;50.80;;;;;;5097023;28;20048;-68
2021/12/22 02:13:46;;;;;;;11.25;6.65;;;20.30;50.90;;;;;;5096901;28;20050;-68
2021/12/22 02:16:15;;;;;;;8.77;6.32;;;20.00;50.70;;;;;;5096699;28;20052;-68
2021/12/22 02:18:49;;;;;;;10.05;6.95;;;20.00;50.70;;;;;;5096213;28;20063;-68
2021/12/22 02:21:17;;;;;;;9.07;6.18;;;20.00;50.70;;;;;;5096726;28;20048;-68
2021/12/22 02:23:43;;;;;;;12.02;7.43;;;19.90;50.70;;;;;;5096883;28;20043;-68
2021/12/22 02:26:20;;;;;;;11.00;6.53;;;19.90;50.60;;;;;;5097040;28;20036;-67
2021/12/22 02:28:55;;;;;;;10.02;6.45;;;19.90;50.50;;;;;;5096679;28;20048;-68
2021/12/22 02:31:22;;;;;;;11.13;6.78;;;19.90;50.50;;;;;;5096726;28;20067;-68
2021/12/22 02:33:50;;;;;;;8.88;5.68;;;19.90;50.40;;;;;;5096784;28;20037;-68
2021/12/22 02:38:46;;;;;;;9.48;6.45;;;20.00;50.30;;;;;;5096556;28;20040;-68
2021/12/22 02:41:16;;;;;;;11.10;6.40;;;19.90;50.30;;;;;;5096691;28;20075;-67
2021/12/22 02:43:49;;;;;;;10.32;6.55;;;19.90;50.30;;;;;;5096467;28;20039;-69
2021/12/22 02:46:18;;;;;;;8.18;6.40;;;19.80;50.10;;;;;;5096197;28;20040;-68
2021/12/22 02:48:45;;;;;;;10.90;6.25;;;19.90;50.10;;;;;;5096646;28;20096;-68
2021/12/22 02:51:11;;;;;;;10.88;7.05;;;19.90;50.00;;;;;;5096509;28;20044;-68
2021/12/22 02:53:43;;;;;;;9.52;6.47;;;19.90;49.90;;;;;;5096724;28;20043;-68
2021/12/22 03:01:40;;;;;;;12.52;7.03;;;19.90;49.60;;;;;;5095717;28;20037;-68
2021/12/22 03:04:12;;;;;;;10.60;6.78;;;20.00;49.60;;;;;;5096385;28;20041;-68
2021/12/22 03:06:46;;;;;;;9.80;5.97;;;20.00;49.50;;;;;;5096633;28;20066;-68
2021/12/22 03:09:28;;;;;;;9.50;6.22;;;20.00;49.50;;;;;;5096639;28;20044;-68
2021/12/22 03:11:56;;;;;;;9.18;6.85;;;19.90;49.60;;;;;;5096174;28;20041;-67
2021/12/22 03:14:23;;;;;;;9.05;6.22;;;19.90;49.60;;;;;;5096333;28;20048;-67
2021/12/22 03:16:50;;;;;;;7.82;6.00;;;20.00;49.60;;;;;;5096112;28;20044;-67
2021/12/22 03:19:19;;;;;;;10.15;6.82;;;19.90;49.70;;;;;;5096501;28;20040;-67
2021/12/22 03:21:47;;;;;;;9.43;6.53;;;19.90;49.60;;;;;;5096302;28;20156;-67
2021/12/22 03:24:15;;;;;;;11.43;6.60;;;19.90;49.60;;;;;;5096281;28;20040;-68
2021/12/22 03:26:43;;;;;;;10.27;6.68;;;19.90;49.70;;;;;;5096424;28;20044;-67
2021/12/22 03:29:11;;;;;;;12.02;7.45;;;19.90;49.80;;;;;;5096215;28;20040;-67
2021/12/22 03:31:38;;;;;;;10.70;7.28;;;19.80;49.60;;;;;;5098320;28;20060;-68
2021/12/22 03:34:06;;;;;;;10.82;7.70;;;19.90;49.70;;;;;;5100075;28;20040;-67
2021/12/22 03:36:32;;;;;;;12.93;7.72;;;19.70;49.80;;;;;;5100007;28;20032;-68
2021/12/22 03:38:59;;;;;;;10.43;6.97;;;19.80;49.80;;;;;;5099937;28;20131;-68
2021/12/22 03:41:25;;;;;;;13.80;7.55;;;19.80;49.80;;;;;;5099746;28;20096;-67
2021/12/22 03:43:52;;;;;;;12.40;7.70;;;19.80;49.60;;;;;;5099717;28;20044;-67
2021/12/22 03:46:19;;;;;;;11.15;6.88;;;19.80;49.50;;;;;;5099534;28;20069;-68
2021/12/22 03:48:45;;;;;;;11.52;6.78;;;19.80;49.50;;;;;;5099696;28;20036;-67
2021/12/22 03:51:11;;;;;;;9.27;6.68;;;19.90;49.50;;;;;;5099219;28;20046;-67
2021/12/22 03:53:37;;;;;;;11.32;7.15;;;19.80;49.20;;;;;;5099504;28;20048;-67
2021/12/22 03:56:04;;;;;;;13.95;7.05;;;19.90;49.30;;;;;;5099197;28;20047;-68
2021/12/22 03:58:30;;;;;;;12.40;6.70;;;19.90;49.30;;;;;;5099459;28;20068;-67
2021/12/22 04:00:56;;;;;;;11.95;6.93;;;19.90;49.30;;;;;;5099318;28;20032;-67
2021/12/22 04:03:28;;;;;;;12.50;7.38;;;19.90;49.10;;;;;;5099291;28;20048;-67
2021/12/22 04:05:54;;;;;;;12.38;7.40;;;19.90;49.10;;;;;;5099240;28;20040;-68
2021/12/22 04:08:20;;;;;;;14.05;7.75;;;19.90;49.10;;;;;;5099527;28;20064;-67
2021/12/22 04:10:48;;;;;;;11.85;7.40;;;19.80;49.20;;;;;;5099462;28;20040;-67
2021/12/22 04:13:14;;;;;;;11.88;7.05;;;20.00;49.40;;;;;;5082281;28;20056;-68
2021/12/22 04:15:41;;;;;;;12.85;7.85;;;19.90;49.40;;;;;;5079165;28;20075;-67
2021/12/22 04:18:07;;;;;;;12.23;6.93;;;19.80;49.20;;;;;;5079106;28;20133;-67
2021/12/22 04:20:34;;;;;;;10.15;6.93;;;19.70;49.40;;;;;;5079015;28;20040;-68
2021/12/22 04:23:00;;;;;;;10.63;6.80;;;19.80;49.40;;;;;;5078987;28;20049;-67
2021/12/22 04:25:27;;;;;;;12.65;6.88;;;19.70;49.50;;;;;;5078897;28;20045;-67
2021/12/22 04:27:57;;;;;;;16.45;6.88;;;19.80;49.40;;;;;;5078939;28;20064;-68
2021/12/22 04:30:25;;;;;;;12.43;7.13;;;19.90;49.40;;;;;;5078813;28;20063;-67
2021/12/22 04:32:51;;;;;;;9.80;7.45;;;19.80;49.50;;;;;;5078595;28;20055;-67
2021/12/22 04:35:18;;;;;;;9.52;6.63;;;19.70;49.50;;;;;;5078500;28;20116;-67
2021/12/22 04:37:44;;;;;;;10.40;6.50;;;19.80;49.50;;;;;;5078863;28;20052;-67
2021/12/22 04:40:11;;;;;;;10.75;6.00;;;19.70;49.50;;;;;;5078800;28;20068;-68
2021/12/22 04:42:37;;;;;;;9.32;6.03;;;19.80;49.30;;;;;;5077515;28;20051;-67
2021/12/22 04:45:06;;;;;;;7.38;5.90;;;19.90;49.40;;;;;;5078523;28;20063;-67
2021/12/22 04:47:33;;;;;;;9.38;6.55;;;20.00;49.20;;;;;;5078684;28;20071;-68
2021/12/22 04:50:01;;;;;;;11.27;7.35;;;20.00;49.10;;;;;;5078270;28;20040;-67
2021/12/22 04:52:37;;;;;;;9.65;6.88;;;20.00;49.20;;;;;;5078220;28;20075;-68
2021/12/22 04:55:04;;;;;;;11.25;7.53;;;20.00;49.20;;;;;;5078371;28;20060;-68
2021/12/22 04:57:32;;;;;;;11.23;7.32;;;20.00;49.10;;;;;;5078401;28;20098;-67
2021/12/22 05:00:00;;;;;;;13.32;7.25;;;20.00;49.10;;;;;;5078262;28;20048;-67
2021/12/22 05:02:27;;;;;;;13.65;7.15;;;19.90;49.10;;;;;;5077531;28;20072;-68
2021/12/22 05:04:54;;;;;;;9.82;6.47;;;19.90;49.10;;;;;;5077680;28;20044;-68
2021/12/22 05:07:20;;;;;;;7.60;5.07;;;20.00;49.10;;;;;;5077381;28;20045;-67
2021/12/22 05:09:46;;;;;;;9.00;5.53;;;20.10;48.90;;;;;;5077350;28;20055;-69
2021/12/22 05:12:12;;;;;;;6.47;4.63;;;20.20;48.80;;;;;;5077363;28;20052;-68
2021/12/22 05:14:39;;;;;;;9.45;5.28;;;20.40;48.60;;;;;;5077182;28;20040;-68
2021/12/22 05:17:07;;;;;;;8.90;5.22;;;20.80;48.20;;;;;;5077252;28;20051;-68
2021/12/22 05:19:33;;;;;;;5.05;3.95;;;20.90;47.80;;;;;;5077279;28;20056;-68
2021/12/22 05:21:59;;;;;;;9.63;5.93;;;21.00;47.70;;;;;;5076990;28;20064;-68
2021/12/22 05:24:26;;;;;;;14.43;7.90;;;21.10;48.90;;;;;;5077054;28;20033;-68
2021/12/22 05:26:52;;;;;;;14.40;7.47;;;21.40;52.90;;;;;;5077174;28;20076;-68
2021/12/22 05:29:18;;;;;;;11.27;6.78;;;22.00;54.50;;;;;;5077212;28;20052;-69
2021/12/22 05:31:44;;;;;;;9.68;6.18;;;22.20;54.00;;;;;;5076565;28;20116;-70
2021/12/22 05:34:11;;;;;;;11.35;5.25;;;22.30;49.70;;;;;;5076567;28;20136;-70
2021/12/22 05:36:37;;;;;;;13.00;8.27;;;22.20;47.70;;;;;;5076827;28;20045;-68
2021/12/22 05:39:03;;;;;;;13.05;8.13;;;22.20;45.60;;;;;;5076791;28;20040;-68
2021/12/22 05:41:29;;;;;;;13.18;8.18;;;21.90;42.20;;;;;;5076581;28;20062;-68
2021/12/22 05:43:55;;;;;;;13.00;8.82;;;21.50;42.00;;;;;;5076628;28;20545;-68
2021/12/22 05:46:21;;;;;;;21.55;11.63;;;21.20;42.50;;;;;;5076667;28;20059;-68
2021/12/22 05:48:49;;;;;;;24.92;12.23;;;21.10;43.80;;;;;;5076715;28;20045;-68
2021/12/22 05:51:15;;;;;;;13.38;8.68;;;21.00;44.50;;;;;;5076493;28;20100;-68
2021/12/22 05:53:42;;;;;;;17.33;9.63;;;20.80;45.20;;;;;;5075694;28;20043;-68
2021/12/22 05:56:08;;;;;;;13.40;7.60;;;20.80;45.80;;;;;;5076506;28;20053;-68
2021/12/22 05:58:34;;;;;;;13.70;8.20;;;20.70;47.40;;;;;;5080091;28;20039;-69
2021/12/22 06:01:00;;;;;;;17.02;9.13;;;20.90;46.60;;;;;;5096377;28;20045;-69
2021/12/22 06:03:27;;;;;;;15.50;9.52;;;21.10;46.80;;;;;;5094699;28;20115;-70
2021/12/22 06:05:53;;;;;;;14.40;9.18;;;21.20;46.10;;;;;;5096116;28;20103;-68
2021/12/22 06:08:19;;;;;;;15.48;8.25;;;21.20;46.60;;;;;;5096290;28;20048;-69
2021/12/22 06:10:45;;;;;;;14.85;9.05;;;20.90;48.60;;;;;;5095489;28;20124;-69
2021/12/22 06:13:12;;;;;;;14.15;8.30;;;21.30;52.80;;;;;;5095748;28;20044;-68
2021/12/22 06:15:40;;;;;;;11.20;5.75;;;21.70;46.00;;;;;;5095572;28;20044;-68
2021/12/22 06:18:06;;;;;;;8.35;5.68;;;21.70;42.20;;;;;;5095834;28;20040;-69
2021/12/22 06:20:34;;;;;;;9.75;6.32;;;21.80;40.00;;;;;;5095712;28;20066;-69
2021/12/22 06:23:00;;;;;;;11.15;6.30;;;21.90;43.80;;;;;;5095746;28;20056;-69
2021/12/22 06:25:28;;;;;;;8.68;6.32;;;22.10;39.80;;;;;;5095738;28;20028;-68
2021/12/22 06:27:54;;;;;;;9.10;6.47;;;22.00;38.60;;;;;;5095530;28;20070;-68
2021/12/22 06:30:21;;;;;;;9.30;6.85;;;22.00;39.20;;;;;;5095558;28;20046;-68
2021/12/22 06:32:50;;;;;;;10.10;6.47;;;22.00;40.20;;;;;;5095058;28;20068;-69
2021/12/22 06:35:17;;;;;;;10.02;7.43;;;22.00;38.80;;;;;;5095286;28;20055;-69
2021/12/22 06:37:44;;;;;;;9.35;6.22;;;22.10;38.20;;;;;;5095322;28;20108;-69
2021/12/22 06:40:12;;;;;;;10.13;6.85;;;22.10;38.70;;;;;;5095044;28;20100;-68
2021/12/22 06:42:39;;;;;;;7.53;4.75;;;22.00;39.10;;;;;;5095198;28;20048;-69
2021/12/22 06:45:07;;;;;;;7.00;5.47;;;22.10;38.90;;;;;;5094913;28;20032;-69
2021/12/22 06:47:34;;;;;;;9.57;5.30;;;22.10;38.00;;;;;;5094838;28;20040;-69
2021/12/22 06:50:00;;;;;;;18.83;10.98;;;22.00;36.60;;;;;;5095203;28;20043;-68
2021/12/22 06:52:26;;;;;;;16.70;11.18;;;22.10;51.00;;;;;;5095274;28;20044;-69
2021/12/22 06:54:52;;;;;;;16.10;9.98;;;22.10;49.80;;;;;;5095337;28;20043;-69
2021/12/22 06:57:21;;;;;;;19.17;10.95;;;22.20;49.50;;;;;;5095300;28;20074;-68
2021/12/22 06:59:49;;;;;;;17.20;10.43;;;22.00;49.90;;;;;;5094285;28;20541;-69
2021/12/22 07:02:16;;;;;;;24.08;10.57;;;21.90;50.50;;;;;;5094948;28;20053;-70
2021/12/22 07:04:42;;;;;;;18.33;9.25;;;21.80;51.10;;;;;;5095320;28;20028;-70
2021/12/22 07:07:08;;;;;;;15.93;9.27;;;21.80;51.80;;;;;;5099832;28;20044;-69
2021/12/22 07:09:35;;;;;;;17.45;9.82;;;21.70;52.20;;;;;;5098875;28;20044;-70
2021/12/22 07:12:02;;;;;;;15.23;9.68;;;21.60;52.50;;;;;;5099061;28;20048;-70
2021/12/22 07:14:28;;;;;;;14.30;9.75;;;21.60;52.90;;;;;;5098563;28;20092;-69
2021/12/22 07:16:55;;;;;;;19.58;11.20;;;21.60;52.90;;;;;;5098715;28;20041;-69
2021/12/22 07:19:20;;;;;;;17.63;10.35;;;21.60;53.10;;;;;;5098862;28;20054;-69
2021/12/22 07:21:48;;;;;;;20.83;11.52;;;21.50;53.30;;;;;;5098812;28;20052;-69
2021/12/22 07:24:15;;;;;;;20.23;11.30;;;21.40;53.70;;;;;;5098354;28;20040;-69
2021/12/22 07:26:41;;;;;;;19.90;11.80;;;21.40;54.00;;;;;;5098681;28;20052;-70
2021/12/22 07:29:07;;;;;;;22.30;11.23;;;21.40;54.40;;;;;;5098620;28;20096;-69
2021/12/22 07:31:34;;;;;;;22.02;11.70;;;21.50;54.50;;;;;;5098451;28;20069;-69
2021/12/22 07:34:15;;;;;;;18.52;9.75;;;21.30;54.50;;;;;;5095829;28;20075;-70
2021/12/22 07:37:13;;;;;;;18.77;10.02;;;21.30;55.00;;;;;;5095814;28;20177;-69
2021/12/22 07:39:39;;;;;;;15.23;9.73;;;21.20;55.00;;;;;;5078237;28;20048;-70
2021/12/22 07:42:05;;;;;;;14.25;9.02;;;21.30;55.00;;;;;;5097506;28;20106;-69
2021/12/22 07:44:32;;;;;;;16.70;8.85;;;21.20;55.50;;;;;;5095810;28;20123;-69
2021/12/22 07:46:58;;;;;;;12.23;7.63;;;21.20;55.40;;;;;;5096260;28;20040;-69
2021/12/22 07:49:24;;;;;;;16.30;8.98;;;21.20;56.10;;;;;;5097690;28;20064;-69
2021/12/22 07:51:50;;;;;;;14.48;8.27;;;21.20;55.90;;;;;;5098197;28;20059;-67
2021/12/22 07:54:18;;;;;;;12.00;7.82;;;21.20;55.90;;;;;;5098322;28;20044;-68
2021/12/22 07:56:44;;;;;;;13.32;7.47;;;21.00;55.90;;;;;;5097842;28;20974;-69
2021/12/22 07:59:10;;;;;;;13.10;7.93;;;21.10;55.90;;;;;;5098350;28;20071;-68
2021/12/22 08:01:36;;;;;;;14.82;7.60;;;21.00;56.10;;;;;;5098246;28;20037;-68
2021/12/22 08:04:03;;;;;;;14.48;8.18;;;21.10;56.20;;;;;;5097764;28;20112;-68
2021/12/22 08:06:29;;;;;;;12.32;7.38;;;21.10;56.20;;;;;;5098084;28;20043;-69
2021/12/22 08:08:55;;;;;;;13.18;8.07;;;21.30;56.50;;;;;;5097967;28;20052;-68
2021/12/22 08:11:21;;;;;;;13.23;7.75;;;21.20;56.40;;;;;;5097691;28;20051;-67
2021/12/22 08:13:47;;;;;;;10.15;7.15;;;21.10;56.40;;;;;;5097662;28;20072;-67
2021/12/22 08:16:13;;;;;;;8.43;6.10;;;21.20;56.20;;;;;;5094127;28;20047;-68
2021/12/22 08:18:41;;;;;;;11.70;6.22;;;21.10;56.20;;;;;;5097930;28;20075;-68
2021/12/22 08:21:07;;;;;;;12.07;6.72;;;21.20;55.60;;;;;;5098160;28;20047;-68
2021/12/22 08:23:34;;;;;;;9.60;5.85;;;21.20;55.40;;;;;;5097640;28;20067;-68
2021/12/22 08:26:00;;;;;;;11.68;6.72;;;21.20;55.30;;;;;;5097986;28;20056;-68
2021/12/22 08:28:26;;;;;;;9.48;6.20;;;21.20;55.40;;;;;;5097018;28;20051;-67
2021/12/22 08:30:53;;;;;;;9.98;7.60;;;21.20;55.80;;;;;;5097025;28;20048;-67
2021/12/22 08:33:25;;;;;;;8.65;5.18;;;21.20;57.90;;;;;;5097134;28;20049;-74
2021/12/22 08:38:51;;;;;;;8.65;5.63;;;21.30;57.30;;;;;;5096910;28;20083;-75
2021/12/22 08:41:23;;;;;;;9.65;4.80;;;21.50;54.40;;;;;;5096563;28;20036;-74
2021/12/22 08:43:52;;;;;;;9.65;5.47;;;21.70;51.10;;;;;;5096895;28;20064;-73
2021/12/22 08:46:19;;;;;;;4.85;3.83;;;21.80;48.30;;;;;;5097785;28;20048;-74
2021/12/22 08:48:45;;;;;;;10.48;5.28;;;21.90;47.20;;;;;;5097024;28;20085;-74
2021/12/22 08:51:12;;;;;;;10.10;6.07;;;21.90;45.60;;;;;;5096916;28;20716;-74
2021/12/22 08:53:41;;;;;;;7.28;4.97;;;21.90;42.70;;;;;;5097256;28;20108;-75
2021/12/22 08:56:07;;;;;;;11.82;6.93;;;22.00;40.30;;;;;;5096178;28;20056;-70
2021/12/22 08:58:33;;;;;;;9.50;6.32;;;22.10;38.60;;;;;;5097334;28;20118;-70
2021/12/22 09:01:00;;;;;;;12.30;7.18;;;22.00;37.40;;;;;;5094395;28;20047;-70
2021/12/22 09:03:51;;;;;;;11.93;7.03;;;22.00;37.60;;;;;;5097088;28;20063;-70
2021/12/22 09:06:17;;;;;;;15.27;6.78;;;21.90;38.50;;;;;;5096390;28;20034;-69
2021/12/22 09:08:44;;;;;;;9.23;5.88;;;21.80;39.20;;;;;;5096625;28;20039;-70
2021/12/22 09:11:12;;;;;;;11.70;6.93;;;22.00;39.60;;;;;;5095038;28;20052;-69
2021/12/22 09:13:40;;;;;;;11.68;6.68;;;21.90;39.90;;;;;;5096382;28;20067;-69
2021/12/22 09:16:08;;;;;;;11.45;6.93;;;21.90;40.60;;;;;;5096285;28;20039;-70
2021/12/22 09:18:35;;;;;;;11.57;8.18;;;21.80;41.40;;;;;;5097083;28;20056;-69
2021/12/22 09:21:02;;;;;;;15.07;7.30;;;21.60;42.10;;;;;;5096613;28;20037;-70
2021/12/22 09:23:30;;;;;;;9.32;5.50;;;21.60;42.70;;;;;;5096789;28;20036;-69
2021/12/22 09:25:56;;;;;;;10.63;6.13;;;21.50;43.20;;;;;;5096508;28;20044;-68
2021/12/22 09:28:22;;;;;;;12.23;5.78;;;21.40;43.60;;;;;;5096413;28;20040;-70
2021/12/22 09:30:49;;;;;;;10.43;5.60;;;21.30;43.80;;;;;;5096296;28;20067;-71
2021/12/22 09:33:18;;;;;;;8.93;5.57;;;21.30;44.50;;;;;;5096612;28;20055;-70
2021/12/22 09:35:47;;;;;;;14.63;6.28;;;21.30;45.50;;;;;;5095525;28;20040;-70
2021/12/22 09:38:13;;;;;;;8.93;5.47;;;21.30;45.90;;;;;;5093150;28;20050;-70
2021/12/22 09:40:40;;;;;;;10.35;5.30;;;21.20;46.10;;;;;;5096404;28;20028;-69
2021/12/22 09:43:07;;;;;;;8.98;5.38;;;21.20;46.60;;;;;;5096238;28;20060;-69
2021/12/22 09:45:40;;;;;;;9.05;5.43;;;21.20;47.00;;;;;;5093522;28;20037;-69
2021/12/22 09:53:18;;;;;;;8.02;4.68;;;21.30;53.20;;;;;;5093827;28;20119;-70
2021/12/22 09:55:44;;;;;;;7.32;5.32;;;21.70;53.10;;;;;;5095893;28;20036;-68
2021/12/22 09:58:11;;;;;;;94.60;39.42;;;22.00;42.60;;;;;;5095599;28;20112;-69
2021/12/22 10:00:39;;;;;;;13.07;7.07;;;22.20;35.00;;;;;;5093021;28;20041;-70
2021/12/22 10:03:06;;;;;;;11.90;5.57;;;22.20;31.90;;;;;;5094868;28;20036;-71
2021/12/22 10:05:35;;;;;;;9.20;5.63;;;22.30;30.50;;;;;;5095494;28;20096;-72
2021/12/22 10:08:25;;;;;;;7.60;5.03;;;22.50;42.00;;;;;;5095825;28;20438;-72
2021/12/22 10:11:09;;;;;;;14.77;6.00;;;22.50;39.50;;;;;;5092678;28;20052;-72
2021/12/22 10:13:38;;;;;;;10.43;4.18;;;22.50;29.90;;;;;;5096116;28;20044;-70
2021/12/22 10:16:19;;;;;;;5.90;4.03;;;22.60;31.50;;;;;;5090013;28;20045;-70
2021/12/22 10:18:46;;;;;;;4.07;3.05;;;22.60;29.80;;;;;;5083953;28;20037;-71
2021/12/22 10:21:23;;;;;;;5.88;4.60;;;22.80;29.90;;;;;;5095610;28;20055;-69
2021/12/22 10:23:52;;;;;;;6.05;3.95;;;22.70;28.60;;;;;;5096084;28;20044;-69
2021/12/22 10:26:26;;;;;;;4.72;3.15;;;22.80;29.40;;;;;;5095395;28;20044;-69
2021/12/22 10:29:05;;;;;;;9.68;5.18;;;22.80;30.90;;;;;;5096176;28;20037;-69
2021/12/22 10:31:40;;;;;;;5.95;3.28;;;22.90;31.40;;;;;;5095717;28;20048;-70
2021/12/22 10:34:12;;;;;;;6.90;5.20;;;22.90;33.00;;;;;;5096040;28;20075;-68
2021/12/22 10:36:51;;;;;;;10.57;5.20;;;22.90;31.60;;;;;;5095791;28;20064;-69
2021/12/22 10:39:32;;;;;;;6.57;4.68;;;23.00;42.10;;;;;;5095363;28;20335;-69
2021/12/22 10:42:02;;;;;;;7.05;5.18;;;23.00;43.00;;;;;;5096160;28;20070;-69
2021/12/22 10:44:40;;;;;;;8.43;5.53;;;23.00;41.50;;;;;;5093100;28;20036;-68
2021/12/22 10:49:14;;;;;;;6.13;3.83;;;23.10;40.80;;;;;;5095714;28;20044;-69
2021/12/22 10:50:24;;;;;;;9.43;4.88;;;23.40;46.90;;;;;;5095803;28;20052;-70
2021/12/22 10:52:50;;;;;;;10.93;5.90;;;23.40;31.80;;;;;;5095363;28;20036;-70
2021/12/22 10:55:17;;;;;;;9.80;5.40;;;23.40;44.80;;;;;;5095522;28;20100;-71
2021/12/22 10:57:45;;;;;;;5.82;3.80;;;23.30;46.10;;;;;;5091762;28;20056;-69
2021/12/22 11:00:23;;;;;;;9.98;6.45;;;23.40;43.40;;;;;;5086870;28;20247;-69
2021/12/22 11:03:07;;;;;;;6.28;4.22;;;23.30;44.90;;;;;;5095662;28;20037;-69
2021/12/22 11:05:48;;;;;;;7.10;3.75;;;23.30;42.10;;;;;;5095245;28;20060;-69
2021/12/22 11:08:18;;;;;;;6.88;5.45;;;23.50;42.50;;;;;;5094969;28;20045;-70
2021/12/22 11:10:45;;;;;;;9.43;5.90;;;23.60;47.70;;;;;;5094740;28;20056;-68
2021/12/22 11:13:11;;;;;;;8.95;6.22;;;23.90;46.60;;;;;;5094686;28;20155;-70
2021/12/22 11:15:44;;;;;;;10.30;6.28;;;24.30;45.30;;;;;;5093354;28;20040;-70
2021/12/22 11:18:30;;;;;;;10.02;6.72;;;24.50;44.90;;;;;;5095707;28;20079;-70
2021/12/22 11:21:22;;;;;;;10.07;6.35;;;24.60;44.50;;;;;;5095282;28;20037;-70
2021/12/22 11:23:50;;;;;;;8.23;5.50;;;24.60;45.00;;;;;;5095701;28;20066;-70
2021/12/22 11:26:16;;;;;;;4.63;3.28;;;24.70;45.00;;;;;;5095515;28;20055;-70
2021/12/22 11:28:43;;;;;;;8.93;5.70;;;24.50;45.20;;;;;;5095338;28;20040;-68
2021/12/22 11:31:10;;;;;;;6.63;4.95;;;24.60;45.30;;;;;;5095456;28;20048;-70
2021/12/22 11:33:39;;;;;;;7.97;5.43;;;24.50;45.10;;;;;;5095335;28;20041;-70
2021/12/22 11:36:07;;;;;;;6.35;4.63;;;24.40;45.60;;;;;;5094485;28;20033;-70
2021/12/22 11:38:33;;;;;;;8.43;4.85;;;24.40;45.30;;;;;;5095197;28;20048;-70
2021/12/22 11:41:13;;;;;;;8.07;5.50;;;24.30;46.00;;;;;;5095049;28;20104;-70
2021/12/22 11:43:42;;;;;;;8.75;5.18;;;24.30;46.40;;;;;;5095102;28;20047;-70
2021/12/22 11:46:09;;;;;;;6.68;4.68;;;24.10;46.70;;;;;;5094445;28;20040;-70
2021/12/22 11:48:36;;;;;;;7.25;5.70;;;24.10;47.40;;;;;;5094553;28;20039;-69
2021/12/22 11:51:20;;;;;;;9.02;6.38;;;23.80;47.70;;;;;;5094642;28;20048;-69
2021/12/22 11:53:54;;;;;;;7.28;5.20;;;23.70;47.70;;;;;;5098630;28;20059;-69
2021/12/22 11:56:44;;;;;;;8.80;6.03;;;23.50;48.30;;;;;;5097777;28;20055;-69
2021/12/22 11:59:28;;;;;;;9.35;5.93;;;23.40;48.80;;;;;;5096152;28;20041;-69
2021/12/22 12:02:17;;;;;;;9.77;6.30;;;23.30;49.30;;;;;;5098712;28;20047;-70
2021/12/22 12:04:44;;;;;;;8.15;5.68;;;23.30;49.50;;;;;;5098194;28;20048;-70
2021/12/22 12:07:10;;;;;;;9.60;5.32;;;23.20;49.90;;;;;;5098637;28;20051;-69
2021/12/22 12:09:45;;;;;;;11.88;6.50;;;23.10;50.30;;;;;;5098683;28;20061;-69
2021/12/22 12:12:45;;;;;;;8.63;5.60;;;23.10;50.20;;;;;;5095730;28;20040;-70
2021/12/22 12:15:24;;;;;;;9.25;5.25;;;23.10;50.20;;;;;;5098182;28;20051;-69
2021/12/22 12:23:32;;;;;;;7.78;5.20;;;22.90;49.80;;;;;;5098094;28;20073;-69
2021/12/22 12:26:06;;;;;;;8.50;5.75;;;22.80;50.30;;;;;;5098142;28;20055;-69
2021/12/22 12:28:46;;;;;;;8.02;5.60;;;23.00;51.40;;;;;;5098044;28;20052;-69
2021/12/22 12:31:12;;;;;;;11.00;6.00;;;22.90;53.10;;;;;;5096527;28;20056;-70
2021/12/22 12:33:44;;;;;;;10.48;5.53;;;23.00;52.60;;;;;;5096819;28;20032;-69
2021/12/22 12:36:12;;;;;;;7.95;4.90;;;22.90;52.10;;;;;;5096582;28;20037;-69
2021/12/22 12:38:49;;;;;;;7.35;4.82;;;22.90;52.20;;;;;;5096775;28;20079;-69
2021/12/22 12:41:25;;;;;;;8.23;5.53;;;22.80;52.20;;;;;;5098142;28;20051;-69
2021/12/22 12:44:04;;;;;;;7.40;4.32;;;22.80;52.10;;;;;;5097615;28;20067;-69
2021/12/22 12:46:38;;;;;;;7.25;5.22;;;22.80;52.70;;;;;;5096933;28;20076;-69
2021/12/22 12:49:05;;;;;;;8.10;5.00;;;22.70;52.40;;;;;;5097793;28;20037;-69
2021/12/22 12:51:41;;;;;;;8.02;4.75;;;22.90;52.90;;;;;;5097634;28;20055;-69
2021/12/22 12:54:20;;;;;;;8.50;5.50;;;22.80;52.60;;;;;;5096805;28;20028;-69
2021/12/22 12:56:59;;;;;;;9.63;4.88;;;22.60;53.20;;;;;;5096626;28;20489;-69
2021/12/22 12:59:38;;;;;;;9.10;4.90;;;22.60;53.10;;;;;;5097203;28;20405;-69
2021/12/22 13:02:06;;;;;;;10.27;5.88;;;22.50;52.70;;;;;;5096290;28;20045;-69
2021/12/22 13:04:41;;;;;;;8.88;4.93;;;22.60;52.90;;;;;;5097145;28;20059;-69
2021/12/22 13:07:08;;;;;;;7.70;5.10;;;22.50;52.90;;;;;;5097064;28;20044;-69
2021/12/22 13:09:42;;;;;;;9.40;5.30;;;22.50;53.10;;;;;;5097279;28;20048;-69
2021/12/22 13:17:35;;;;;;;10.18;5.00;;;22.70;53.70;;;;;;5097309;28;20055;-69
2021/12/22 13:20:01;;;;;;;8.20;4.78;;;22.80;53.80;;;;;;5097132;28;20090;-68
2021/12/22 13:22:28;;;;;;;8.93;5.05;;;22.60;53.40;;;;;;5097367;28;20040;-70
2021/12/22 13:25:10;;;;;;;6.85;3.95;;;22.70;54.60;;;;;;5097170;28;20109;-69